sensor_id;sensor_type;location;lat;lon;timestamp;P1;durP1;ratioP1;P2;durP2;ratioP2
40793;SDS011;26502;51.886;15.604;2023-07-31T00:02:30;2.80;;;2.10;;
40793;SDS011;26502;51.886;15.604;2023-07-31T00:07:33;3.80;;;2.10;;
40793;SDS011;26502;51.886;15.604;2023-07-31T00:12:37;3.10;;;2.50;;
40793;SDS011;26502;51.886;15.604;2023-07-31T00:17:41;7.60;;;2.30;;
40793;SDS011;26502;51.886;15.604;2023-07-31T00:22:44;4.40;;;2.50;;
40793;SDS011;26502;51.886;15.604;2023-07-31T00:27:47;4.20;;;2.70;;
40793;SDS011;26502;51.886;15.604;2023-07-31T00:32:51;3.00;;;2.10;;
40793;SDS011;26502;51.886;15.604;2023-07-31T00:37:55;5.40;;;2.50;;
40793;SDS011;26502;51.886;15.604;2023-07-31T00:42:59;3.80;;;2.30;;
40793;SDS011;26502;51.886;15.604;2023-07-31T00:48:03;2.70;;;2.40;;
40793;SDS011;26502;51.886;15.604;2023-07-31T00:53:08;4.20;;;2.50;;
40793;SDS011;26502;51.886;15.604;2023-07-31T00:58:11;3.60;;;2.50;;
40793;SDS011;26502;51.886;15.604;2023-07-31T01:03:15;4.00;;;2.90;;
40793;SDS011;26502;51.886;15.604;2023-07-31T01:08:24;3.40;;;2.70;;
40793;SDS011;26502;51.886;15.604;2023-07-31T01:13:35;3.60;;;2.50;;
40793;SDS011;26502;51.886;15.604;2023-07-31T01:18:38;3.90;;;2.50;;
40793;SDS011;26502;51.886;15.604;2023-07-31T01:29:09;2.60;;;2.40;;
40793;SDS011;26502;51.886;15.604;2023-07-31T01:34:18;6.60;;;2.70;;
40793;SDS011;26502;51.886;15.604;2023-07-31T01:39:23;3.50;;;2.70;;
40793;SDS011;26502;51.886;15.604;2023-07-31T01:44:26;4.90;;;3.40;;
40793;SDS011;26502;51.886;15.604;2023-07-31T01:49:30;5.20;;;3.10;;
40793;SDS011;26502;51.886;15.604;2023-07-31T01:54:34;4.60;;;3.00;;
40793;SDS011;26502;51.886;15.604;2023-07-31T01:59:38;4.80;;;3.00;;
40793;SDS011;26502;51.886;15.604;2023-07-31T02:04:42;4.50;;;3.10;;
40793;SDS011;26502;51.886;15.604;2023-07-31T02:09:45;5.50;;;3.20;;
40793;SDS011;26502;51.886;15.604;2023-07-31T02:14:49;4.20;;;3.00;;
40793;SDS011;26502;51.886;15.604;2023-07-31T02:19:53;4.10;;;3.10;;
40793;SDS011;26502;51.886;15.604;2023-07-31T02:24:56;5.60;;;2.70;;
40793;SDS011;26502;51.886;15.604;2023-07-31T02:30:00;3.50;;;2.90;;
40793;SDS011;26502;51.886;15.604;2023-07-31T02:35:04;4.10;;;3.00;;
40793;SDS011;26502;51.886;15.604;2023-07-31T02:40:09;4.90;;;3.20;;
40793;SDS011;26502;51.886;15.604;2023-07-31T02:45:13;3.50;;;2.80;;
40793;SDS011;26502;51.886;15.604;2023-07-31T02:50:17;4.30;;;3.20;;
40793;SDS011;26502;51.886;15.604;2023-07-31T02:55:21;7.40;;;3.20;;
40793;SDS011;26502;51.886;15.604;2023-07-31T03:00:24;6.80;;;3.00;;
40793;SDS011;26502;51.886;15.604;2023-07-31T03:05:27;4.90;;;3.00;;
40793;SDS011;26502;51.886;15.604;2023-07-31T03:10:31;4.20;;;3.40;;
40793;SDS011;26502;51.886;15.604;2023-07-31T03:15:34;4.50;;;2.80;;
40793;SDS011;26502;51.886;15.604;2023-07-31T03:20:37;4.20;;;3.00;;
40793;SDS011;26502;51.886;15.604;2023-07-31T03:25:55;6.60;;;3.70;;
40793;SDS011;26502;51.886;15.604;2023-07-31T03:31:03;4.70;;;3.30;;
40793;SDS011;26502;51.886;15.604;2023-07-31T03:36:07;6.80;;;3.70;;
40793;SDS011;26502;51.886;15.604;2023-07-31T03:41:10;6.90;;;3.20;;
40793;SDS011;26502;51.886;15.604;2023-07-31T03:46:14;5.50;;;3.20;;
40793;SDS011;26502;51.886;15.604;2023-07-31T03:51:17;5.10;;;3.50;;
40793;SDS011;26502;51.886;15.604;2023-07-31T03:56:20;8.60;;;3.80;;
40793;SDS011;26502;51.886;15.604;2023-07-31T04:01:24;5.20;;;3.10;;
40793;SDS011;26502;51.886;15.604;2023-07-31T04:06:28;5.70;;;3.10;;
40793;SDS011;26502;51.886;15.604;2023-07-31T04:11:31;5.90;;;3.40;;
40793;SDS011;26502;51.886;15.604;2023-07-31T04:16:35;4.70;;;3.40;;
40793;SDS011;26502;51.886;15.604;2023-07-31T04:21:38;5.90;;;3.70;;
40793;SDS011;26502;51.886;15.604;2023-07-31T04:26:41;7.20;;;3.80;;
40793;SDS011;26502;51.886;15.604;2023-07-31T04:31:45;5.60;;;3.50;;
40793;SDS011;26502;51.886;15.604;2023-07-31T04:36:50;8.60;;;4.10;;
40793;SDS011;26502;51.886;15.604;2023-07-31T04:41:53;4.90;;;3.80;;
40793;SDS011;26502;51.886;15.604;2023-07-31T04:46:56;6.90;;;3.60;;
40793;SDS011;26502;51.886;15.604;2023-07-31T04:52:00;4.40;;;3.60;;
40793;SDS011;26502;51.886;15.604;2023-07-31T04:57:03;5.50;;;3.60;;
40793;SDS011;26502;51.886;15.604;2023-07-31T05:02:08;6.40;;;3.60;;
40793;SDS011;26502;51.886;15.604;2023-07-31T05:07:14;6.90;;;3.80;;
40793;SDS011;26502;51.886;15.604;2023-07-31T05:12:18;7.30;;;3.50;;
40793;SDS011;26502;51.886;15.604;2023-07-31T05:17:22;4.00;;;3.10;;
40793;SDS011;26502;51.886;15.604;2023-07-31T05:22:25;8.00;;;3.00;;
40793;SDS011;26502;51.886;15.604;2023-07-31T05:27:29;6.00;;;2.60;;
40793;SDS011;26502;51.886;15.604;2023-07-31T05:32:33;6.20;;;3.30;;
40793;SDS011;26502;51.886;15.604;2023-07-31T05:37:37;5.50;;;2.90;;
40793;SDS011;26502;51.886;15.604;2023-07-31T05:42:40;4.70;;;2.50;;
40793;SDS011;26502;51.886;15.604;2023-07-31T05:47:43;6.00;;;2.10;;
40793;SDS011;26502;51.886;15.604;2023-07-31T05:52:46;4.20;;;2.20;;
40793;SDS011;26502;51.886;15.604;2023-07-31T05:57:50;10.00;;;2.40;;
40793;SDS011;26502;51.886;15.604;2023-07-31T06:02:53;9.50;;;2.20;;
40793;SDS011;26502;51.886;15.604;2023-07-31T06:07:57;9.60;;;2.40;;
40793;SDS011;26502;51.886;15.604;2023-07-31T06:13:00;8.50;;;2.50;;
40793;SDS011;26502;51.886;15.604;2023-07-31T06:18:04;7.50;;;2.20;;
40793;SDS011;26502;51.886;15.604;2023-07-31T06:23:09;6.20;;;2.20;;
40793;SDS011;26502;51.886;15.604;2023-07-31T06:28:12;4.20;;;2.20;;
40793;SDS011;26502;51.886;15.604;2023-07-31T06:33:15;5.70;;;2.70;;
40793;SDS011;26502;51.886;15.604;2023-07-31T06:38:21;4.00;;;2.20;;
40793;SDS011;26502;51.886;15.604;2023-07-31T06:43:26;7.00;;;2.30;;
40793;SDS011;26502;51.886;15.604;2023-07-31T06:48:29;2.70;;;1.90;;
40793;SDS011;26502;51.886;15.604;2023-07-31T06:53:33;5.50;;;2.00;;
40793;SDS011;26502;51.886;15.604;2023-07-31T06:58:36;6.00;;;1.90;;
40793;SDS011;26502;51.886;15.604;2023-07-31T07:03:39;3.50;;;1.70;;
40793;SDS011;26502;51.886;15.604;2023-07-31T07:08:43;5.60;;;1.90;;
40793;SDS011;26502;51.886;15.604;2023-07-31T07:13:46;4.80;;;1.80;;
40793;SDS011;26502;51.886;15.604;2023-07-31T07:18:50;5.30;;;2.30;;
40793;SDS011;26502;51.886;15.604;2023-07-31T07:23:53;3.00;;;1.90;;
40793;SDS011;26502;51.886;15.604;2023-07-31T07:28:57;2.90;;;1.80;;
40793;SDS011;26502;51.886;15.604;2023-07-31T07:34:02;5.50;;;2.20;;
40793;SDS011;26502;51.886;15.604;2023-07-31T07:39:06;8.70;;;2.20;;
40793;SDS011;26502;51.886;15.604;2023-07-31T07:44:11;5.80;;;2.20;;
40793;SDS011;26502;51.886;15.604;2023-07-31T07:49:14;3.00;;;2.00;;
40793;SDS011;26502;51.886;15.604;2023-07-31T07:54:18;3.00;;;1.80;;
40793;SDS011;26502;51.886;15.604;2023-07-31T07:59:23;4.70;;;2.30;;
40793;SDS011;26502;51.886;15.604;2023-07-31T08:04:26;5.10;;;2.40;;
40793;SDS011;26502;51.886;15.604;2023-07-31T08:09:30;4.50;;;2.50;;
40793;SDS011;26502;51.886;15.604;2023-07-31T08:14:33;3.40;;;2.30;;
40793;SDS011;26502;51.886;15.604;2023-07-31T08:19:37;2.80;;;2.10;;
40793;SDS011;26502;51.886;15.604;2023-07-31T08:24:41;5.90;;;2.20;;
40793;SDS011;26502;51.886;15.604;2023-07-31T08:29:44;3.70;;;2.10;;
40793;SDS011;26502;51.886;15.604;2023-07-31T08:34:47;5.10;;;2.40;;
40793;SDS011;26502;51.886;15.604;2023-07-31T08:39:51;4.00;;;2.10;;
40793;SDS011;26502;51.886;15.604;2023-07-31T08:44:56;3.30;;;2.20;;
40793;SDS011;26502;51.886;15.604;2023-07-31T08:49:59;2.70;;;1.70;;
40793;SDS011;26502;51.886;15.604;2023-07-31T08:55:04;3.40;;;2.00;;
40793;SDS011;26502;51.886;15.604;2023-07-31T09:00:10;4.10;;;1.60;;
40793;SDS011;26502;51.886;15.604;2023-07-31T09:05:14;2.70;;;1.90;;
40793;SDS011;26502;51.886;15.604;2023-07-31T09:10:19;2.00;;;1.80;;
40793;SDS011;26502;51.886;15.604;2023-07-31T09:15:22;2.10;;;1.90;;
40793;SDS011;26502;51.886;15.604;2023-07-31T09:20:27;3.40;;;1.80;;
40793;SDS011;26502;51.886;15.604;2023-07-31T09:25:30;2.20;;;1.50;;
40793;SDS011;26502;51.886;15.604;2023-07-31T09:30:44;3.50;;;1.90;;
40793;SDS011;26502;51.886;15.604;2023-07-31T09:35:50;2.40;;;2.00;;
40793;SDS011;26502;51.886;15.604;2023-07-31T09:40:53;2.50;;;1.90;;
40793;SDS011;26502;51.886;15.604;2023-07-31T09:45:57;1.80;;;1.70;;
40793;SDS011;26502;51.886;15.604;2023-07-31T09:51:00;4.00;;;2.30;;
40793;SDS011;26502;51.886;15.604;2023-07-31T09:56:07;4.00;;;2.30;;
40793;SDS011;26502;51.886;15.604;2023-07-31T10:01:11;4.00;;;2.50;;
40793;SDS011;26502;51.886;15.604;2023-07-31T10:06:15;4.30;;;2.50;;
40793;SDS011;26502;51.886;15.604;2023-07-31T10:11:20;6.00;;;2.40;;
40793;SDS011;26502;51.886;15.604;2023-07-31T10:16:26;5.60;;;2.40;;
40793;SDS011;26502;51.886;15.604;2023-07-31T10:21:31;3.80;;;2.60;;
40793;SDS011;26502;51.886;15.604;2023-07-31T10:26:36;5.90;;;2.80;;
40793;SDS011;26502;51.886;15.604;2023-07-31T10:31:41;4.30;;;3.00;;
40793;SDS011;26502;51.886;15.604;2023-07-31T10:36:44;4.90;;;3.00;;
40793;SDS011;26502;51.886;15.604;2023-07-31T10:41:48;4.20;;;2.70;;
40793;SDS011;26502;51.886;15.604;2023-07-31T10:46:54;5.50;;;2.70;;
40793;SDS011;26502;51.886;15.604;2023-07-31T10:51:58;8.40;;;2.90;;
40793;SDS011;26502;51.886;15.604;2023-07-31T10:57:01;5.60;;;3.00;;
40793;SDS011;26502;51.886;15.604;2023-07-31T11:02:24;5.20;;;2.70;;
40793;SDS011;26502;51.886;15.604;2023-07-31T11:07:36;4.70;;;2.60;;
40793;SDS011;26502;51.886;15.604;2023-07-31T11:12:49;5.90;;;3.00;;
40793;SDS011;26502;51.886;15.604;2023-07-31T11:17:53;4.10;;;2.40;;
40793;SDS011;26502;51.886;15.604;2023-07-31T11:23:00;3.80;;;2.70;;
40793;SDS011;26502;51.886;15.604;2023-07-31T11:28:08;4.00;;;2.10;;
40793;SDS011;26502;51.886;15.604;2023-07-31T11:38:21;5.00;;;2.40;;
40793;SDS011;26502;51.886;15.604;2023-07-31T11:43:26;7.20;;;2.20;;
40793;SDS011;26502;51.886;15.604;2023-07-31T11:48:30;5.80;;;2.50;;
40793;SDS011;26502;51.886;15.604;2023-07-31T11:53:36;6.50;;;2.70;;
40793;SDS011;26502;51.886;15.604;2023-07-31T11:58:44;3.00;;;2.30;;
40793;SDS011;26502;51.886;15.604;2023-07-31T12:03:50;3.90;;;2.20;;
40793;SDS011;26502;51.886;15.604;2023-07-31T12:08:54;3.10;;;2.80;;
40793;SDS011;26502;51.886;15.604;2023-07-31T12:14:04;6.30;;;3.00;;
40793;SDS011;26502;51.886;15.604;2023-07-31T12:19:07;3.80;;;2.40;;
40793;SDS011;26502;51.886;15.604;2023-07-31T12:24:11;7.40;;;2.50;;
40793;SDS011;26502;51.886;15.604;2023-07-31T12:29:14;3.00;;;2.10;;
40793;SDS011;26502;51.886;15.604;2023-07-31T12:34:18;5.60;;;2.20;;
40793;SDS011;26502;51.886;15.604;2023-07-31T12:39:22;4.20;;;2.40;;
40793;SDS011;26502;51.886;15.604;2023-07-31T12:44:26;5.60;;;2.30;;
40793;SDS011;26502;51.886;15.604;2023-07-31T12:49:30;2.10;;;1.80;;
40793;SDS011;26502;51.886;15.604;2023-07-31T12:54:33;6.00;;;2.70;;
40793;SDS011;26502;51.886;15.604;2023-07-31T12:59:37;3.20;;;2.00;;
40793;SDS011;26502;51.886;15.604;2023-07-31T13:04:41;3.20;;;1.90;;
40793;SDS011;26502;51.886;15.604;2023-07-31T13:09:44;2.00;;;1.70;;
40793;SDS011;26502;51.886;15.604;2023-07-31T13:14:47;2.60;;;1.80;;
40793;SDS011;26502;51.886;15.604;2023-07-31T13:19:51;3.90;;;2.10;;
40793;SDS011;26502;51.886;15.604;2023-07-31T13:24:54;2.40;;;1.80;;
40793;SDS011;26502;51.886;15.604;2023-07-31T13:29:57;5.50;;;2.20;;
40793;SDS011;26502;51.886;15.604;2023-07-31T13:35:01;1.90;;;1.70;;
40793;SDS011;26502;51.886;15.604;2023-07-31T13:40:05;2.70;;;2.30;;
40793;SDS011;26502;51.886;15.604;2023-07-31T13:45:10;5.70;;;2.30;;
40793;SDS011;26502;51.886;15.604;2023-07-31T13:50:13;3.90;;;2.30;;
40793;SDS011;26502;51.886;15.604;2023-07-31T13:55:17;6.00;;;2.50;;
40793;SDS011;26502;51.886;15.604;2023-07-31T14:00:21;3.30;;;2.30;;
40793;SDS011;26502;51.886;15.604;2023-07-31T14:05:25;7.90;;;2.30;;
40793;SDS011;26502;51.886;15.604;2023-07-31T14:10:28;3.00;;;2.20;;
40793;SDS011;26502;51.886;15.604;2023-07-31T14:15:31;9.10;;;2.20;;
40793;SDS011;26502;51.886;15.604;2023-07-31T14:20:37;2.60;;;2.40;;
40793;SDS011;26502;51.886;15.604;2023-07-31T14:25:40;2.40;;;2.20;;
40793;SDS011;26502;51.886;15.604;2023-07-31T14:30:44;6.80;;;2.60;;
40793;SDS011;26502;51.886;15.604;2023-07-31T14:35:47;3.10;;;2.40;;
40793;SDS011;26502;51.886;15.604;2023-07-31T14:40:51;2.70;;;2.20;;
40793;SDS011;26502;51.886;15.604;2023-07-31T14:45:54;5.80;;;2.40;;
40793;SDS011;26502;51.886;15.604;2023-07-31T14:51:00;2.70;;;2.20;;
40793;SDS011;26502;51.886;15.604;2023-07-31T14:56:04;4.20;;;2.60;;
40793;SDS011;26502;51.886;15.604;2023-07-31T15:01:07;5.90;;;2.30;;
40793;SDS011;26502;51.886;15.604;2023-07-31T15:06:11;3.50;;;2.20;;
40793;SDS011;26502;51.886;15.604;2023-07-31T15:11:14;3.70;;;2.40;;
40793;SDS011;26502;51.886;15.604;2023-07-31T15:16:18;7.20;;;3.30;;
40793;SDS011;26502;51.886;15.604;2023-07-31T15:21:21;3.90;;;2.80;;
40793;SDS011;26502;51.886;15.604;2023-07-31T15:26:25;3.10;;;2.40;;
40793;SDS011;26502;51.886;15.604;2023-07-31T15:31:28;4.40;;;2.80;;
40793;SDS011;26502;51.886;15.604;2023-07-31T15:36:32;3.70;;;2.60;;
40793;SDS011;26502;51.886;15.604;2023-07-31T15:41:36;6.40;;;2.70;;
40793;SDS011;26502;51.886;15.604;2023-07-31T15:46:40;3.00;;;2.60;;
40793;SDS011;26502;51.886;15.604;2023-07-31T15:51:43;3.40;;;2.90;;
40793;SDS011;26502;51.886;15.604;2023-07-31T15:56:46;5.90;;;2.80;;
40793;SDS011;26502;51.886;15.604;2023-07-31T16:01:49;5.90;;;2.50;;
40793;SDS011;26502;51.886;15.604;2023-07-31T16:06:53;3.30;;;2.50;;
40793;SDS011;26502;51.886;15.604;2023-07-31T16:11:56;7.40;;;2.80;;
40793;SDS011;26502;51.886;15.604;2023-07-31T16:16:59;3.30;;;2.30;;
40793;SDS011;26502;51.886;15.604;2023-07-31T16:22:04;4.00;;;2.80;;
40793;SDS011;26502;51.886;15.604;2023-07-31T16:27:09;6.10;;;2.20;;
40793;SDS011;26502;51.886;15.604;2023-07-31T16:32:12;4.70;;;2.50;;
40793;SDS011;26502;51.886;15.604;2023-07-31T16:37:16;4.30;;;2.80;;
40793;SDS011;26502;51.886;15.604;2023-07-31T16:42:19;2.70;;;2.50;;
40793;SDS011;26502;51.886;15.604;2023-07-31T16:47:24;5.00;;;2.40;;
40793;SDS011;26502;51.886;15.604;2023-07-31T16:52:27;2.50;;;2.30;;
40793;SDS011;26502;51.886;15.604;2023-07-31T16:57:30;4.90;;;3.30;;
40793;SDS011;26502;51.886;15.604;2023-07-31T17:02:34;6.30;;;3.10;;
40793;SDS011;26502;51.886;15.604;2023-07-31T17:07:37;5.50;;;2.80;;
40793;SDS011;26502;51.886;15.604;2023-07-31T17:12:41;3.50;;;3.10;;
40793;SDS011;26502;51.886;15.604;2023-07-31T17:17:44;4.30;;;3.70;;
40793;SDS011;26502;51.886;15.604;2023-07-31T17:22:47;4.60;;;4.00;;
40793;SDS011;26502;51.886;15.604;2023-07-31T17:27:51;6.00;;;2.90;;
40793;SDS011;26502;51.886;15.604;2023-07-31T17:32:54;5.50;;;4.40;;
40793;SDS011;26502;51.886;15.604;2023-07-31T17:37:58;4.60;;;2.90;;
40793;SDS011;26502;51.886;15.604;2023-07-31T17:43:01;4.00;;;2.60;;
40793;SDS011;26502;51.886;15.604;2023-07-31T17:48:04;4.80;;;3.00;;
40793;SDS011;26502;51.886;15.604;2023-07-31T17:53:10;3.80;;;2.80;;
40793;SDS011;26502;51.886;15.604;2023-07-31T17:58:13;7.70;;;2.80;;
40793;SDS011;26502;51.886;15.604;2023-07-31T18:03:17;6.50;;;3.00;;
40793;SDS011;26502;51.886;15.604;2023-07-31T18:08:20;5.90;;;2.70;;
40793;SDS011;26502;51.886;15.604;2023-07-31T18:13:24;6.00;;;2.70;;
40793;SDS011;26502;51.886;15.604;2023-07-31T18:18:27;10.50;;;3.70;;
40793;SDS011;26502;51.886;15.604;2023-07-31T18:23:31;4.00;;;2.70;;
40793;SDS011;26502;51.886;15.604;2023-07-31T18:28:34;4.10;;;3.20;;
40793;SDS011;26502;51.886;15.604;2023-07-31T18:33:37;3.90;;;2.90;;
40793;SDS011;26502;51.886;15.604;2023-07-31T18:38:41;4.50;;;3.00;;
40793;SDS011;26502;51.886;15.604;2023-07-31T18:43:44;4.10;;;2.80;;
40793;SDS011;26502;51.886;15.604;2023-07-31T18:48:48;5.60;;;2.60;;
40793;SDS011;26502;51.886;15.604;2023-07-31T18:53:51;4.40;;;2.50;;
40793;SDS011;26502;51.886;15.604;2023-07-31T18:58:55;5.60;;;3.10;;
40793;SDS011;26502;51.886;15.604;2023-07-31T19:03:58;3.70;;;2.80;;
40793;SDS011;26502;51.886;15.604;2023-07-31T19:09:02;7.80;;;3.10;;
40793;SDS011;26502;51.886;15.604;2023-07-31T19:14:05;3.10;;;2.30;;
40793;SDS011;26502;51.886;15.604;2023-07-31T19:19:09;4.40;;;3.00;;
40793;SDS011;26502;51.886;15.604;2023-07-31T19:24:12;4.80;;;3.30;;
40793;SDS011;26502;51.886;15.604;2023-07-31T19:29:16;5.40;;;3.10;;
40793;SDS011;26502;51.886;15.604;2023-07-31T19:34:19;3.80;;;2.80;;
40793;SDS011;26502;51.886;15.604;2023-07-31T19:39:22;6.30;;;3.10;;
40793;SDS011;26502;51.886;15.604;2023-07-31T19:44:26;5.50;;;2.80;;
40793;SDS011;26502;51.886;15.604;2023-07-31T19:49:29;6.30;;;3.60;;
40793;SDS011;26502;51.886;15.604;2023-07-31T19:54:32;10.80;;;6.20;;
40793;SDS011;26502;51.886;15.604;2023-07-31T19:59:36;9.00;;;5.10;;
40793;SDS011;26502;51.886;15.604;2023-07-31T20:04:39;6.20;;;4.00;;
40793;SDS011;26502;51.886;15.604;2023-07-31T20:09:43;4.20;;;3.20;;
40793;SDS011;26502;51.886;15.604;2023-07-31T20:14:46;7.40;;;3.20;;
40793;SDS011;26502;51.886;15.604;2023-07-31T20:19:51;5.40;;;2.80;;
40793;SDS011;26502;51.886;15.604;2023-07-31T20:24:55;4.10;;;2.70;;
40793;SDS011;26502;51.886;15.604;2023-07-31T20:29:58;11.10;;;3.40;;
40793;SDS011;26502;51.886;15.604;2023-07-31T20:35:02;8.50;;;3.40;;
40793;SDS011;26502;51.886;15.604;2023-07-31T20:40:07;5.10;;;2.70;;
40793;SDS011;26502;51.886;15.604;2023-07-31T20:45:12;7.10;;;3.10;;
40793;SDS011;26502;51.886;15.604;2023-07-31T20:50:16;6.20;;;2.90;;
40793;SDS011;26502;51.886;15.604;2023-07-31T20:55:19;4.40;;;2.80;;
40793;SDS011;26502;51.886;15.604;2023-07-31T21:00:22;5.30;;;2.80;;
40793;SDS011;26502;51.886;15.604;2023-07-31T21:05:26;4.30;;;3.00;;
40793;SDS011;26502;51.886;15.604;2023-07-31T21:10:29;5.60;;;2.70;;
40793;SDS011;26502;51.886;15.604;2023-07-31T21:15:32;5.80;;;3.10;;
40793;SDS011;26502;51.886;15.604;2023-07-31T21:20:36;4.50;;;3.00;;
40793;SDS011;26502;51.886;15.604;2023-07-31T21:25:40;5.40;;;2.90;;
40793;SDS011;26502;51.886;15.604;2023-07-31T21:30:43;3.40;;;2.80;;
40793;SDS011;26502;51.886;15.604;2023-07-31T21:35:46;4.00;;;2.60;;
40793;SDS011;26502;51.886;15.604;2023-07-31T21:40:49;7.50;;;3.00;;
40793;SDS011;26502;51.886;15.604;2023-07-31T21:45:53;3.50;;;2.80;;
40793;SDS011;26502;51.886;15.604;2023-07-31T21:50:56;7.40;;;3.20;;
40793;SDS011;26502;51.886;15.604;2023-07-31T21:56:00;6.70;;;3.00;;
40793;SDS011;26502;51.886;15.604;2023-07-31T22:01:03;5.80;;;2.80;;
40793;SDS011;26502;51.886;15.604;2023-07-31T22:06:08;6.30;;;2.80;;
40793;SDS011;26502;51.886;15.604;2023-07-31T22:11:11;7.30;;;2.70;;
40793;SDS011;26502;51.886;15.604;2023-07-31T22:16:15;6.80;;;3.10;;
40793;SDS011;26502;51.886;15.604;2023-07-31T22:21:19;5.30;;;3.10;;
40793;SDS011;26502;51.886;15.604;2023-07-31T22:26:22;4.90;;;2.90;;
40793;SDS011;26502;51.886;15.604;2023-07-31T22:31:25;6.80;;;3.00;;
40793;SDS011;26502;51.886;15.604;2023-07-31T22:36:29;4.20;;;2.70;;
40793;SDS011;26502;51.886;15.604;2023-07-31T22:41:32;4.20;;;2.80;;
40793;SDS011;26502;51.886;15.604;2023-07-31T22:46:35;7.90;;;3.00;;
40793;SDS011;26502;51.886;15.604;2023-07-31T22:51:39;5.00;;;3.40;;
40793;SDS011;26502;51.886;15.604;2023-07-31T22:56:42;4.20;;;3.00;;
40793;SDS011;26502;51.886;15.604;2023-07-31T23:01:46;7.50;;;2.80;;
40793;SDS011;26502;51.886;15.604;2023-07-31T23:06:49;5.80;;;3.00;;
40793;SDS011;26502;51.886;15.604;2023-07-31T23:11:55;5.30;;;2.90;;
40793;SDS011;26502;51.886;15.604;2023-07-31T23:16:58;7.10;;;2.80;;
40793;SDS011;26502;51.886;15.604;2023-07-31T23:22:01;7.10;;;3.40;;
40793;SDS011;26502;51.886;15.604;2023-07-31T23:27:05;6.70;;;3.20;;
40793;SDS011;26502;51.886;15.604;2023-07-31T23:32:09;4.50;;;3.20;;
40793;SDS011;26502;51.886;15.604;2023-07-31T23:37:12;6.70;;;3.20;;
40793;SDS011;26502;51.886;15.604;2023-07-31T23:42:16;6.20;;;3.40;;
40793;SDS011;26502;51.886;15.604;2023-07-31T23:47:19;7.50;;;3.50;;
40793;SDS011;26502;51.886;15.604;2023-07-31T23:52:22;7.30;;;3.30;;
40793;SDS011;26502;51.886;15.604;2023-07-31T23:57:26;5.70;;;3.20;;
